Time;durP1;ratioP1;P1;durP2;ratioP2;P2;SDS_P1;SDS_P2;PMS_P1;PMS_P2;Temp;Humidity;BMP_temperature;BMP_pressure;BME280_temperature;BME280_humidity;BME280_pressure;Samples;Min_cycle;Max_cycle;Signal;HPM_P1;HPM_P2
2023/09/24 00:01:44;;;;;;;4.33;1.30;;;;;;;19.61;59.87;101088.09;4999050;28;20208;-64
2023/09/24 00:04:10;;;;;;;3.60;1.40;;;;;;;19.62;59.93;101083.22;5007691;28;20177;-64
2023/09/24 00:06:36;;;;;;;3.27;1.37;;;;;;;19.62;60.18;101089.75;4971887;28;20271;-64
2023/09/24 00:09:02;;;;;;;3.10;1.40;;;;;;;19.61;60.20;101090.16;5009781;28;20415;-65
2023/09/24 00:11:27;;;;;;;2.60;1.33;;;;;;;19.61;60.20;101095.88;5005715;28;20213;-64
2023/09/24 00:13:53;;;;;;;3.40;1.30;;;;;;;19.60;60.10;101089.31;5007636;28;20189;-65
2023/09/24 00:16:19;;;;;;;3.87;1.50;;;;;;;19.61;59.89;101085.25;5008726;28;20229;-64
2023/09/24 00:18:44;;;;;;;4.53;1.60;;;;;;;19.59;59.89;101087.66;4975859;28;20752;-68
2023/09/24 00:21:10;;;;;;;3.00;1.33;;;;;;;19.58;59.97;101091.72;4987760;28;20220;-68
2023/09/24 00:23:36;;;;;;;6.43;1.70;;;;;;;19.58;60.13;101097.44;5008209;28;20165;-68
2023/09/24 00:26:02;;;;;;;2.30;1.03;;;;;;;19.57;59.91;101094.94;5009058;28;20470;-68
2023/09/24 00:28:27;;;;;;;1.90;1.00;;;;;;;19.58;60.06;101103.19;4997751;28;20611;-68
2023/09/24 00:30:54;;;;;;;2.87;1.23;;;;;;;19.57;60.03;101104.34;4956326;28;20169;-68
2023/09/24 00:33:21;;;;;;;3.33;1.40;;;;;;;19.57;59.75;101112.13;4979678;28;20238;-68
2023/09/24 00:35:47;;;;;;;4.43;1.77;;;;;;;19.56;59.75;101107.63;5007924;28;20899;-67
2023/09/24 00:38:12;;;;;;;2.73;1.33;;;;;;;19.56;60.30;101104.75;5009412;28;20420;-68
2023/09/24 00:40:38;;;;;;;3.80;1.10;;;;;;;19.55;60.05;101115.34;5005356;28;20192;-68
2023/09/24 00:43:03;;;;;;;2.67;1.10;;;;;;;19.55;59.90;101118.22;5004111;28;20217;-67
2023/09/24 00:45:29;;;;;;;2.53;1.07;;;;;;;19.54;59.95;101115.72;4990960;28;20215;-68
2023/09/24 00:47:57;;;;;;;3.63;1.60;;;;;;;19.54;60.05;101125.16;5007491;28;20169;-68
2023/09/24 00:50:32;;;;;;;3.80;2.00;;;;;;;19.53;59.75;101123.50;4991515;28;20188;-68
2023/09/24 00:52:58;;;;;;;4.00;1.40;;;;;;;19.52;59.89;101121.81;4991095;28;20499;-68
2023/09/24 00:55:23;;;;;;;2.60;1.20;;;;;;;19.51;60.17;101125.06;4982044;28;20420;-68
2023/09/24 00:57:49;;;;;;;2.60;1.10;;;;;;;19.52;59.94;101121.81;4988521;28;20189;-68
2023/09/24 01:00:37;;;;;;;3.10;1.13;;;;;;;19.50;59.93;101124.22;5009332;28;20177;-68
2023/09/24 01:03:02;;;;;;;3.10;1.20;;;;;;;19.51;59.87;101125.06;5004234;28;20638;-68
2023/09/24 01:05:28;;;;;;;3.80;1.20;;;;;;;19.49;59.74;101122.56;4974952;28;20424;-68
2023/09/24 01:07:54;;;;;;;3.83;1.27;;;;;;;19.48;59.71;101120.91;4988343;28;20185;-68
2023/09/24 01:10:26;;;;;;;2.50;1.20;;;;;;;19.49;59.61;101116.00;4995151;28;20664;-68
2023/09/24 01:13:01;;;;;;;4.17;1.23;;;;;;;19.48;59.39;101120.06;4992230;28;20479;-68
2023/09/24 01:15:27;;;;;;;2.10;1.10;;;;;;;19.47;59.72;101122.09;5005673;28;20486;-68
2023/09/24 01:17:53;;;;;;;4.60;1.43;;;;;;;19.48;59.39;101132.38;5011088;28;20500;-68
2023/09/24 01:20:22;;;;;;;4.20;1.90;;;;;;;19.48;59.48;101132.38;4988338;28;20440;-68
2023/09/24 01:22:49;;;;;;;3.00;1.23;;;;;;;19.47;59.42;101127.00;4992798;28;20209;-68
2023/09/24 01:25:14;;;;;;;2.63;1.03;;;;;;;19.44;59.21;101119.97;5006499;28;20421;-68
2023/09/24 01:27:40;;;;;;;2.10;1.00;;;;;;;19.46;59.32;101123.28;4970596;28;20907;-69
2023/09/24 01:30:06;;;;;;;3.00;1.10;;;;;;;19.45;59.26;101110.19;5010381;28;20185;-68
2023/09/24 01:32:31;;;;;;;3.50;1.20;;;;;;;19.44;59.40;101119.97;4992767;28;20239;-68
2023/09/24 01:34:57;;;;;;;2.97;1.50;;;;;;;19.45;59.29;101115.06;4993301;28;20439;-68
2023/09/24 01:37:23;;;;;;;3.70;1.00;;;;;;;19.44;59.07;101111.38;5012026;28;20165;-68
2023/09/24 01:39:51;;;;;;;2.13;1.10;;;;;;;19.44;59.23;101107.69;5010221;28;20201;-68
2023/09/24 01:42:16;;;;;;;1.60;0.90;;;;;;;19.43;59.11;101109.72;5011638;28;20209;-69
2023/09/24 01:44:42;;;;;;;2.50;1.20;;;;;;;19.43;58.93;101106.88;4978247;28;20416;-68
2023/09/24 01:47:07;;;;;;;2.30;1.20;;;;;;;19.42;59.08;101116.63;5009138;28;20185;-68
2023/09/24 01:49:33;;;;;;;3.30;1.17;;;;;;;19.43;59.15;101114.59;5011251;28;20173;-68
2023/09/24 01:51:59;;;;;;;2.47;1.23;;;;;;;19.42;59.12;101122.34;5003730;28;20280;-68
2023/09/24 01:54:25;;;;;;;4.63;1.30;;;;;;;19.41;58.89;101119.88;4994096;28;20526;-68
2023/09/24 01:56:50;;;;;;;3.97;1.53;;;;;;;19.41;59.01;101128.47;4990917;28;20664;-68
2023/09/24 01:59:16;;;;;;;1.93;0.90;;;;;;;19.38;59.13;101124.31;5008575;28;20189;-67
2023/09/24 02:01:44;;;;;;;4.00;1.33;;;;;;;19.37;59.12;101128.34;4977443;28;20200;-68
2023/09/24 02:04:10;;;;;;;2.70;1.00;;;;;;;19.37;59.25;101125.47;4996917;28;20279;-68
2023/09/24 02:06:35;;;;;;;2.57;1.37;;;;;;;19.36;58.95;101120.97;4991089;28;20429;-68
2023/09/24 02:09:01;;;;;;;3.50;1.20;;;;;;;19.37;58.85;101130.41;5009418;28;20211;-65
2023/09/24 02:11:27;;;;;;;2.60;1.03;;;;;;;19.36;58.99;101137.34;5007819;28;20210;-64
2023/09/24 02:13:54;;;;;;;2.50;1.07;;;;;;;19.36;58.62;101135.28;5011342;28;20172;-65
2023/09/24 02:16:19;;;;;;;4.40;1.50;;;;;;;19.35;58.67;101133.63;5009783;28;20468;-65
2023/09/24 02:18:44;;;;;;;2.63;1.10;;;;;;;19.35;58.61;101127.91;4977023;28;20507;-65
2023/09/24 02:21:14;;;;;;;2.60;1.10;;;;;;;19.34;58.90;101129.09;4993611;28;20587;-64
2023/09/24 02:23:42;;;;;;;3.43;1.23;;;;;;;19.35;58.80;101132.78;4991221;28;20193;-65
2023/09/24 02:26:13;;;;;;;2.37;1.20;;;;;;;19.34;58.61;101131.97;5009667;28;20499;-65
2023/09/24 02:28:39;;;;;;;3.37;1.00;;;;;;;19.34;58.61;101136.84;5007198;28;20897;-64
2023/09/24 02:31:10;;;;;;;3.90;1.20;;;;;;;19.32;58.70;101139.25;4974038;28;20475;-65
2023/09/24 02:33:36;;;;;;;3.23;1.30;;;;;;;19.32;58.42;101142.13;4974588;28;20228;-64
2023/09/24 02:36:02;;;;;;;3.30;1.30;;;;;;;19.32;58.44;101133.53;4988042;28;20947;-64
2023/09/24 02:38:28;;;;;;;3.43;1.30;;;;;;;19.31;58.14;101137.59;4993638;28;20248;-64
2023/09/24 02:40:56;;;;;;;2.40;1.13;;;;;;;19.32;58.21;101147.84;5004987;28;20496;-65
2023/09/24 02:43:23;;;;;;;1.70;0.80;;;;;;;19.31;58.41;101143.31;4989978;28;20213;-64
2023/09/24 02:45:48;;;;;;;2.57;1.13;;;;;;;19.31;58.55;101149.88;5011004;28;20404;-64
2023/09/24 02:48:18;;;;;;;2.30;1.37;;;;;;;19.31;58.45;101151.91;5006590;28;20796;-64
2023/09/24 02:50:43;;;;;;;2.50;1.20;;;;;;;19.29;58.43;101149.41;5010875;28;20649;-64
2023/09/24 02:53:09;;;;;;;2.37;1.53;;;;;;;19.29;58.18;101143.69;5007767;28;20486;-64
2023/09/24 02:55:36;;;;;;;2.30;1.10;;;;;;;19.29;58.14;101148.56;4997766;28;20173;-65
2023/09/24 02:58:03;;;;;;;2.10;1.03;;;;;;;19.27;58.18;101157.50;4995731;28;20267;-64
2023/09/24 03:00:36;;;;;;;2.73;1.30;;;;;;;19.26;58.16;101150.13;5009207;28;20431;-65
2023/09/24 03:03:05;;;;;;;3.63;1.40;;;;;;;19.27;58.24;101159.56;5008817;28;20507;-64
2023/09/24 03:05:31;;;;;;;2.47;1.30;;;;;;;19.27;58.16;101159.56;4993914;28;20444;-64
2023/09/24 03:08:02;;;;;;;3.93;1.00;;;;;;;19.25;58.56;101151.34;4991922;28;20423;-64
2023/09/24 03:10:29;;;;;;;2.87;1.50;;;;;;;19.27;58.02;101154.66;5007298;28;20697;-64
2023/09/24 03:12:55;;;;;;;9.43;1.30;;;;;;;19.26;58.11;101155.84;4992440;28;20471;-64
2023/09/24 03:15:20;;;;;;;2.33;1.20;;;;;;;19.24;58.30;101152.53;5008865;28;20455;-64
2023/09/24 03:17:48;;;;;;;3.63;1.20;;;;;;;19.25;58.10;101147.63;4989677;28;20189;-68
2023/09/24 03:20:20;;;;;;;2.20;1.13;;;;;;;19.24;58.11;101157.41;4990426;28;20263;-69
2023/09/24 03:22:48;;;;;;;2.20;1.20;;;;;;;19.24;58.09;101161.13;4973772;28;20461;-68
2023/09/24 03:25:24;;;;;;;2.37;1.07;;;;;;;19.23;57.94;101162.31;4994704;28;20411;-68
2023/09/24 03:27:51;;;;;;;3.30;1.50;;;;;;;19.23;57.97;101170.91;4989138;28;20443;-68
2023/09/24 03:30:19;;;;;;;5.00;1.27;;;;;;;19.22;57.94;101166.38;5005754;28;20436;-68
2023/09/24 03:32:46;;;;;;;2.70;1.43;;;;;;;19.21;57.73;101169.59;4991347;28;20439;-68
2023/09/24 03:35:12;;;;;;;2.70;1.50;;;;;;;19.21;57.83;101173.25;4973232;28;20408;-68
2023/09/24 03:37:37;;;;;;;1.70;0.90;;;;;;;19.22;57.91;101180.69;4957147;28;20870;-68
2023/09/24 03:40:09;;;;;;;3.00;1.13;;;;;;;19.21;57.83;101169.59;5006718;28;20483;-68
2023/09/24 03:42:35;;;;;;;2.00;0.87;;;;;;;19.19;57.88;101169.94;5009854;28;20243;-68
2023/09/24 03:45:01;;;;;;;3.53;1.30;;;;;;;19.18;57.92;101174.00;4989546;28;21237;-68
2023/09/24 03:47:26;;;;;;;3.30;1.10;;;;;;;19.18;57.96;101174.00;5009712;28;20540;-68
2023/09/24 03:49:51;;;;;;;2.50;1.17;;;;;;;19.18;57.75;101174.00;5009771;28;20177;-68
2023/09/24 03:52:17;;;;;;;2.30;1.03;;;;;;;19.17;57.54;101175.19;4971602;28;20581;-68
2023/09/24 03:54:42;;;;;;;2.37;1.20;;;;;;;19.17;57.78;101180.09;4995209;28;20189;-68
2023/09/24 03:57:08;;;;;;;2.10;1.07;;;;;;;19.16;57.53;101187.84;5009320;28;20243;-68
2023/09/24 03:59:36;;;;;;;2.50;1.30;;;;;;;19.16;57.46;101187.03;5006504;28;20185;-69
2023/09/24 04:02:06;;;;;;;1.77;1.13;;;;;;;19.15;57.33;101189.03;5009388;28;20736;-68
2023/09/24 04:04:33;;;;;;;3.03;1.40;;;;;;;19.14;57.42;101189.38;5007330;28;20432;-68
2023/09/24 04:06:58;;;;;;;2.30;1.20;;;;;;;19.13;57.35;101194.31;4996954;28;20423;-68
2023/09/24 04:09:23;;;;;;;3.00;1.30;;;;;;;19.12;57.56;101191.78;5009460;28;20424;-68
2023/09/24 04:11:49;;;;;;;2.67;1.10;;;;;;;19.12;57.24;101192.63;4996641;28;20210;-68
2023/09/24 04:14:14;;;;;;;2.00;1.10;;;;;;;19.12;57.25;101194.66;4972374;28;20181;-68
2023/09/24 04:16:41;;;;;;;1.80;0.97;;;;;;;19.10;57.11;101195.03;4970722;28;20578;-68
2023/09/24 04:19:07;;;;;;;2.93;1.10;;;;;;;19.12;57.06;101200.38;5007915;28;20173;-68
2023/09/24 04:21:32;;;;;;;3.20;1.10;;;;;;;19.10;57.20;101197.03;5008937;28;20459;-68
2023/09/24 04:23:58;;;;;;;2.37;1.10;;;;;;;19.09;57.10;101199.09;5003974;28;20352;-68
2023/09/24 04:26:24;;;;;;;2.37;1.20;;;;;;;19.08;57.06;101203.16;4991935;28;20314;-68
2023/09/24 04:28:51;;;;;;;2.00;1.10;;;;;;;19.07;56.81;101210.03;4973664;28;20284;-68
2023/09/24 04:31:16;;;;;;;2.73;1.00;;;;;;;19.06;57.12;101208.38;4991916;28;20420;-68
2023/09/24 04:33:44;;;;;;;1.80;1.07;;;;;;;19.06;57.00;101210.44;5009305;28;20458;-68
2023/09/24 04:36:09;;;;;;;2.00;1.10;;;;;;;19.05;57.05;101221.03;4991851;28;20212;-67
2023/09/24 04:38:36;;;;;;;1.83;1.00;;;;;;;19.05;56.73;101223.03;5000818;28;20444;-67
2023/09/24 04:41:02;;;;;;;2.10;0.90;;;;;;;19.03;56.58;101225.44;4998936;28;20549;-67
2023/09/24 04:43:28;;;;;;;2.20;1.00;;;;;;;19.04;56.74;101230.81;5006411;28;20559;-68
2023/09/24 04:45:53;;;;;;;2.53;1.20;;;;;;;19.04;56.32;101238.56;4990096;28;20423;-67
2023/09/24 04:48:18;;;;;;;2.70;1.10;;;;;;;19.03;56.43;101229.16;5007836;28;20498;-68
2023/09/24 04:50:44;;;;;;;2.10;1.20;;;;;;;19.05;55.94;101235.34;4997974;28;20660;-68
2023/09/24 04:53:10;;;;;;;2.20;1.00;;;;;;;19.03;56.46;101242.63;4974832;28;20173;-68
2023/09/24 04:55:35;;;;;;;1.70;0.90;;;;;;;19.03;56.28;101245.47;4987427;28;20177;-68
2023/09/24 04:58:00;;;;;;;2.10;1.20;;;;;;;19.01;56.29;101240.13;4995292;28;20279;-68
2023/09/24 05:00:26;;;;;;;1.60;0.90;;;;;;;19.01;56.66;101248.69;4991013;28;20329;-68
2023/09/24 05:02:51;;;;;;;2.20;0.70;;;;;;;18.99;56.24;101241.66;4993558;28;20201;-68
2023/09/24 05:05:17;;;;;;;3.03;0.97;;;;;;;18.99;56.68;101253.13;5011494;28;20542;-68
2023/09/24 05:07:42;;;;;;;2.90;1.10;;;;;;;18.99;56.45;101261.69;5009980;28;20193;-68
2023/09/24 05:10:09;;;;;;;3.10;1.10;;;;;;;18.99;56.34;101259.69;5007781;28;20255;-68
2023/09/24 05:12:35;;;;;;;2.80;1.17;;;;;;;18.98;56.22;101265.78;4991506;28;20177;-67
2023/09/24 05:15:01;;;;;;;1.67;0.77;;;;;;;18.98;56.10;101266.63;4991463;28;20431;-68
2023/09/24 05:17:26;;;;;;;2.50;1.33;;;;;;;18.97;56.26;101270.63;4974439;28;20249;-68
2023/09/24 05:19:52;;;;;;;2.00;0.80;;;;;;;18.97;56.21;101273.50;4971957;28;20174;-68
2023/09/24 05:22:17;;;;;;;2.03;0.97;;;;;;;18.96;56.36;101274.72;4963504;28;20215;-68
2023/09/24 05:24:43;;;;;;;1.60;0.83;;;;;;;18.95;56.31;101278.78;4996816;28;20178;-67
2023/09/24 05:27:08;;;;;;;1.87;1.00;;;;;;;18.94;56.03;101274.25;4971424;28;20547;-67
2023/09/24 05:29:34;;;;;;;1.90;1.00;;;;;;;18.94;56.03;101277.09;5001614;28;20190;-67
2023/09/24 05:32:02;;;;;;;3.20;1.20;;;;;;;18.94;55.97;101287.72;4990756;28;20245;-68
2023/09/24 05:34:28;;;;;;;2.47;1.23;;;;;;;18.93;56.09;101283.19;4992621;28;20957;-68
2023/09/24 05:36:53;;;;;;;3.60;1.20;;;;;;;18.92;56.10;101282.34;4989596;28;20457;-67
2023/09/24 05:39:19;;;;;;;7.60;2.03;;;;;;;18.91;56.18;101289.25;4977171;28;20209;-68
2023/09/24 05:41:44;;;;;;;3.03;1.20;;;;;;;18.91;55.92;101289.25;4991035;28;20212;-68
2023/09/24 05:44:10;;;;;;;7.27;1.40;;;;;;;18.91;55.84;101294.97;4957653;28;20193;-67
2023/09/24 05:46:35;;;;;;;4.37;1.63;;;;;;;18.91;56.30;101292.13;4990569;28;20178;-68
2023/09/24 05:49:01;;;;;;;2.93;1.30;;;;;;;18.91;56.33;101305.63;4985707;28;20186;-67
2023/09/24 05:51:26;;;;;;;2.73;1.57;;;;;;;18.90;56.30;101313.34;4984196;28;20174;-68
2023/09/24 05:53:52;;;;;;;3.00;1.53;;;;;;;18.90;56.25;101313.34;4991073;28;20177;-68
2023/09/24 05:56:18;;;;;;;3.60;1.90;;;;;;;18.90;56.41;101304.75;4971161;28;20265;-68
2023/09/24 05:58:44;;;;;;;4.07;1.63;;;;;;;18.91;56.46;101303.56;4975016;28;20448;-68
2023/09/24 06:01:18;;;;;;;3.87;1.87;;;;;;;18.89;56.71;101303.09;4972696;28;20198;-68
2023/09/24 06:03:43;;;;;;;4.77;2.00;;;;;;;18.90;56.93;101307.63;4955391;28;20172;-68
2023/09/24 06:06:09;;;;;;;2.97;1.53;;;;;;;18.90;56.80;101309.66;4975994;28;20883;-68
2023/09/24 06:08:36;;;;;;;4.00;1.90;;;;;;;18.90;56.90;101312.50;4987863;28;20193;-68
2023/09/24 06:11:02;;;;;;;4.37;1.63;;;;;;;18.89;57.10;101313.69;4991657;28;20209;-68
2023/09/24 06:13:27;;;;;;;3.60;1.83;;;;;;;18.90;56.96;101321.94;4990418;28;20483;-67
2023/09/24 06:15:58;;;;;;;2.83;1.63;;;;;;;18.90;57.26;101333.38;4997287;28;20217;-67
2023/09/24 06:18:24;;;;;;;3.27;1.50;;;;;;;18.90;57.18;101323.94;4993961;28;20189;-68
2023/09/24 06:20:49;;;;;;;2.67;1.83;;;;;;;18.89;57.36;101325.16;4981106;28;20460;-68
2023/09/24 06:23:14;;;;;;;2.83;1.77;;;;;;;18.88;57.55;101327.19;4990193;28;20205;-67
2023/09/24 06:25:40;;;;;;;4.90;1.57;;;;;;;18.88;57.81;101329.22;5011219;28;20181;-67
2023/09/24 06:28:09;;;;;;;2.57;1.50;;;;;;;18.88;57.52;101329.22;5007274;28;20626;-68
2023/09/24 06:30:36;;;;;;;3.47;1.73;;;;;;;18.89;57.73;101328.84;5011148;28;20236;-68
2023/09/24 06:33:01;;;;;;;3.33;1.90;;;;;;;18.87;57.88;101324.69;5011074;28;20400;-67
2023/09/24 06:35:27;;;;;;;3.13;1.60;;;;;;;18.87;57.86;101331.22;4993198;28;20436;-67
2023/09/24 06:37:52;;;;;;;4.80;2.40;;;;;;;18.86;57.83;101332.41;5006247;28;20189;-67
2023/09/24 06:40:18;;;;;;;2.80;1.83;;;;;;;18.86;57.78;101335.28;5008931;28;20554;-67
2023/09/24 06:42:45;;;;;;;3.80;1.97;;;;;;;18.86;58.24;101334.47;5010660;28;20947;-68
2023/09/24 06:45:11;;;;;;;3.17;1.90;;;;;;;18.85;57.99;101338.50;5008263;28;20223;-68
2023/09/24 06:47:36;;;;;;;2.80;1.60;;;;;;;18.85;58.25;101333.63;4999939;28;20448;-67
2023/09/24 06:50:02;;;;;;;3.90;2.03;;;;;;;18.85;58.24;101333.63;4995339;28;20189;-68
2023/09/24 06:52:30;;;;;;;3.70;1.40;;;;;;;18.86;58.38;101337.31;4991351;28;20174;-68
2023/09/24 06:54:56;;;;;;;2.97;1.87;;;;;;;18.85;58.23;101347.94;4996950;28;20428;-67
2023/09/24 06:57:21;;;;;;;3.33;2.20;;;;;;;18.85;58.30;101342.22;5010591;28;21184;-68
2023/09/24 06:59:47;;;;;;;2.50;1.50;;;;;;;18.84;58.46;101351.97;4995209;28;20189;-67
2023/09/24 07:02:16;;;;;;;2.60;1.63;;;;;;;18.84;58.17;101348.28;4992805;28;20201;-68
2023/09/24 07:04:42;;;;;;;3.00;1.90;;;;;;;18.84;58.72;101354.00;4989894;28;20192;-68
2023/09/24 07:07:08;;;;;;;2.47;1.50;;;;;;;18.83;58.43;101344.59;4990615;28;20417;-67
2023/09/24 07:09:34;;;;;;;2.87;1.93;;;;;;;18.81;58.35;101344.09;4993382;28;20233;-68
2023/09/24 07:11:59;;;;;;;2.83;1.30;;;;;;;18.82;58.53;101345.78;5007855;28;20586;-68
2023/09/24 07:14:25;;;;;;;2.23;1.20;;;;;;;18.82;58.49;101348.63;4992326;28;20683;-68
2023/09/24 07:16:50;;;;;;;3.00;1.80;;;;;;;18.83;58.48;101344.59;5004232;28;20681;-68
2023/09/24 07:19:19;;;;;;;3.20;1.60;;;;;;;18.83;58.77;101338.03;4990694;28;20637;-68
2023/09/24 07:21:45;;;;;;;2.40;1.50;;;;;;;18.82;58.81;101334.31;4990393;28;20229;-68
2023/09/24 07:24:11;;;;;;;2.10;1.43;;;;;;;18.82;58.61;101342.91;4978263;28;20439;-68
2023/09/24 07:26:36;;;;;;;3.17;1.83;;;;;;;18.84;58.80;101340.53;5010089;28;20496;-68
2023/09/24 07:29:02;;;;;;;6.27;1.37;;;;;;;18.84;58.48;101340.53;5009764;28;20177;-68
2023/09/24 07:31:28;;;;;;;2.50;1.50;;;;;;;18.84;58.59;101342.56;4993384;28;20197;-68
2023/09/24 07:33:54;;;;;;;3.00;2.00;;;;;;;18.83;58.52;101344.59;4983559;28;20232;-68
2023/09/24 07:36:20;;;;;;;3.40;1.90;;;;;;;18.82;58.69;101353.53;4975765;28;20420;-67
2023/09/24 07:38:45;;;;;;;2.87;1.30;;;;;;;18.81;58.69;101349.81;5007729;28;20479;-68
2023/09/24 07:41:11;;;;;;;2.27;1.37;;;;;;;18.82;59.12;101344.94;4994021;28;20189;-68
2023/09/24 07:43:37;;;;;;;4.03;1.80;;;;;;;18.79;59.02;101346.50;4990353;28;20205;-68
2023/09/24 07:46:03;;;;;;;4.13;1.73;;;;;;;18.80;58.91;101350.19;4979331;28;20181;-68
2023/09/24 07:48:29;;;;;;;2.20;1.33;;;;;;;18.79;59.39;101360.81;5009394;28;20177;-68
2023/09/24 07:50:54;;;;;;;2.80;1.50;;;;;;;18.76;59.52;101361.50;4988940;28;20439;-68
2023/09/24 07:53:23;;;;;;;3.67;1.40;;;;;;;18.79;59.86;101357.09;5007434;28;20165;-68
2023/09/24 07:56:06;;;;;;;3.03;1.63;;;;;;;18.79;59.25;101355.09;4999696;28;20198;-68
2023/09/24 07:58:32;;;;;;;3.63;2.40;;;;;;;18.79;59.48;101348.50;5007847;28;20498;-68
2023/09/24 08:01:04;;;;;;;4.67;2.00;;;;;;;18.80;59.51;101361.63;4987721;28;20936;-67
2023/09/24 08:03:30;;;;;;;2.27;1.33;;;;;;;18.80;59.68;101355.91;4991237;28;20236;-68
2023/09/24 08:05:56;;;;;;;2.43;1.40;;;;;;;18.79;60.02;101352.22;5009314;28;21236;-68
2023/09/24 08:08:23;;;;;;;3.40;1.67;;;;;;;18.79;59.88;101355.09;5008217;28;20434;-68
2023/09/24 08:10:49;;;;;;;3.07;1.60;;;;;;;18.78;59.90;101353.41;5008712;28;20522;-67
2023/09/24 08:13:15;;;;;;;3.53;1.40;;;;;;;18.79;59.88;101352.22;4982763;28;20455;-68
2023/09/24 08:15:40;;;;;;;3.83;1.77;;;;;;;18.79;59.69;101355.09;4975234;28;20468;-67
2023/09/24 08:18:09;;;;;;;4.00;1.87;;;;;;;18.78;59.95;101350.56;5009992;28;20165;-68
2023/09/24 08:20:36;;;;;;;4.00;1.90;;;;;;;18.76;60.21;101358.66;4991163;28;20242;-67
2023/09/24 08:23:02;;;;;;;3.47;1.60;;;;;;;18.76;60.48;101358.66;5000196;28;21257;-67
2023/09/24 08:25:27;;;;;;;3.07;1.60;;;;;;;18.68;61.34;101359.63;5009354;28;20451;-68
2023/09/24 08:27:53;;;;;;;3.30;1.97;;;;;;;18.72;60.78;101362.59;5007313;28;20874;-68
2023/09/24 08:30:19;;;;;;;2.87;1.70;;;;;;;18.73;60.65;101367.13;4978844;28;20195;-67
2023/09/24 08:32:44;;;;;;;3.03;1.80;;;;;;;18.73;60.91;101365.09;4959027;28;20782;-68
2023/09/24 08:35:10;;;;;;;4.47;2.40;;;;;;;18.73;61.15;101355.66;4970956;28;20190;-68
2023/09/24 08:37:35;;;;;;;6.10;1.90;;;;;;;18.69;61.36;101366.16;4993574;28;20183;-68
2023/09/24 08:40:01;;;;;;;3.53;1.63;;;;;;;18.71;61.60;101364.59;4994496;28;20212;-68
2023/09/24 08:42:26;;;;;;;4.70;2.23;;;;;;;18.66;61.62;101367.69;4993723;28;20212;-68
2023/09/24 08:45:11;;;;;;;5.50;2.07;;;;;;;18.69;61.34;101364.13;5003491;28;20212;-68
2023/09/24 08:47:38;;;;;;;6.20;1.70;;;;;;;18.70;61.57;101368.66;5008782;28;20196;-68
2023/09/24 08:50:04;;;;;;;4.00;1.80;;;;;;;18.72;61.39;101360.53;5008366;28;20512;-67
2023/09/24 08:52:43;;;;;;;4.13;1.70;;;;;;;18.77;61.23;101368.06;5005564;28;20424;-68
2023/09/24 08:55:10;;;;;;;4.37;2.07;;;;;;;18.72;61.62;101362.59;5006824;28;20181;-68
2023/09/24 08:57:43;;;;;;;4.10;1.83;;;;;;;18.70;62.03;101359.22;4993332;28;20451;-68
2023/09/24 09:00:11;;;;;;;4.40;2.10;;;;;;;18.66;62.05;101358.31;4979135;28;20412;-68
2023/09/24 09:02:36;;;;;;;6.07;2.00;;;;;;;18.69;61.96;101360.44;5012284;28;20518;-68
2023/09/24 09:05:08;;;;;;;3.20;1.83;;;;;;;18.72;61.72;101357.69;5007909;28;20424;-68
2023/09/24 09:07:34;;;;;;;3.53;1.70;;;;;;;18.70;61.94;101360.09;5012064;28;20189;-65
2023/09/24 09:10:02;;;;;;;7.00;1.50;;;;;;;18.47;63.29;101361.72;5005231;28;20541;-63
2023/09/24 09:12:27;;;;;;;3.00;1.60;;;;;;;18.61;62.50;101358.53;4992793;28;21047;-63
2023/09/24 09:14:53;;;;;;;4.30;1.60;;;;;;;18.64;62.36;101355.78;4978457;28;20444;-64
2023/09/24 09:17:18;;;;;;;4.40;1.77;;;;;;;18.67;62.71;101352.19;4993390;28;20231;-64
2023/09/24 09:19:59;;;;;;;4.70;1.80;;;;;;;18.65;62.67;101343.16;5011386;28;20993;-63
2023/09/24 09:22:28;;;;;;;5.87;1.80;;;;;;;18.56;63.08;101351.00;5010984;28;20201;-63
2023/09/24 09:25:02;;;;;;;3.33;1.70;;;;;;;18.64;62.77;101344.34;4981349;28;20912;-64
2023/09/24 09:27:47;;;;;;;3.73;1.77;;;;;;;18.54;63.40;101336.25;5007369;28;20501;-65
2023/09/24 09:30:15;;;;;;;4.20;1.80;;;;;;;18.18;64.57;101339.00;5011258;28;20542;-63
2023/09/24 09:32:41;;;;;;;4.83;1.60;;;;;;;18.45;63.65;101332.66;4993303;28;20435;-64
2023/09/24 09:35:07;;;;;;;3.50;1.47;;;;;;;18.36;64.28;101334.78;4991450;28;20436;-64
2023/09/24 09:37:32;;;;;;;2.70;1.50;;;;;;;18.59;63.28;101326.56;5009522;28;20911;-64
2023/09/24 09:39:58;;;;;;;3.70;1.63;;;;;;;18.63;63.22;101325.53;4963233;28;20185;-65
2023/09/24 09:42:25;;;;;;;4.30;1.73;;;;;;;18.57;63.20;101321.22;5011756;28;20212;-63
2023/09/24 09:44:51;;;;;;;2.43;1.20;;;;;;;18.65;63.54;101311.69;4990459;28;20194;-64
2023/09/24 09:47:18;;;;;;;3.17;1.57;;;;;;;18.59;63.86;101320.84;5006944;28;20437;-64
2023/09/24 09:49:48;;;;;;;5.90;1.60;;;;;;;18.60;63.73;101306.22;5010732;28;20408;-64
2023/09/24 09:52:13;;;;;;;5.20;1.50;;;;;;;18.72;63.20;101311.91;4982334;28;20438;-63
2023/09/24 09:54:39;;;;;;;4.20;1.30;;;;;;;18.65;63.66;101308.81;5002866;28;20447;-63
2023/09/24 09:57:04;;;;;;;2.53;1.23;;;;;;;18.55;63.88;101309.31;5010553;28;20188;-64
2023/09/24 09:59:30;;;;;;;10.03;2.07;;;;;;;18.65;63.63;101308.81;4992657;28;20189;-64
2023/09/24 10:01:56;;;;;;;3.90;1.47;;;;;;;18.51;64.67;101307.53;5003417;28;20218;-64
2023/09/24 10:04:21;;;;;;;6.70;1.97;;;;;;;18.64;63.46;101301.44;4993974;28;20177;-63
2023/09/24 10:06:46;;;;;;;3.93;1.43;;;;;;;18.54;64.61;101299.06;5008523;28;21150;-64
2023/09/24 10:09:27;;;;;;;2.40;1.27;;;;;;;18.63;64.14;101299.78;5008762;28;20649;-63
2023/09/24 10:11:55;;;;;;;3.93;1.60;;;;;;;18.66;63.79;101303.97;4995515;28;20218;-64
2023/09/24 10:14:37;;;;;;;5.33;1.87;;;;;;;18.73;63.70;101293.59;4978180;28;20421;-63
2023/09/24 10:17:25;;;;;;;5.80;1.63;;;;;;;18.74;63.54;101305.84;4978548;28;20786;-68
2023/09/24 10:19:55;;;;;;;2.57;1.37;;;;;;;18.72;64.03;101291.88;4996017;28;20439;-64
2023/09/24 10:22:31;;;;;;;5.50;1.83;;;;;;;18.78;63.70;101286.78;4991881;28;20465;-65
2023/09/24 10:24:57;;;;;;;5.80;1.97;;;;;;;18.72;63.72;101286.16;5009487;28;20505;-64
2023/09/24 10:27:26;;;;;;;4.80;2.00;;;;;;;18.69;64.19;101291.78;5006336;28;21076;-64
2023/09/24 10:29:53;;;;;;;4.23;2.10;;;;;;;18.75;64.21;101285.47;5010574;28;20165;-64
2023/09/24 10:32:21;;;;;;;4.80;1.87;;;;;;;18.75;64.15;101282.59;5007563;28;20439;-64
2023/09/24 10:34:55;;;;;;;8.10;2.57;;;;;;;18.66;64.26;101279.03;4993463;28;20923;-64
2023/09/24 10:37:21;;;;;;;4.60;2.23;;;;;;;18.67;64.31;101271.28;5009115;28;20514;-64
2023/09/24 10:40:05;;;;;;;4.80;2.37;;;;;;;18.72;64.71;101277.59;5010644;28;20943;-65
2023/09/24 10:42:31;;;;;;;5.47;2.40;;;;;;;18.76;64.27;101269.97;5005132;28;20463;-63
2023/09/24 10:45:06;;;;;;;5.43;2.30;;;;;;;18.79;63.51;101271.28;4992519;28;20467;-64
2023/09/24 10:47:34;;;;;;;2.93;1.63;;;;;;;18.81;61.66;101266.03;5009135;28;20427;-64
2023/09/24 10:50:06;;;;;;;3.57;1.67;;;;;;;18.88;62.51;101260.53;4990192;28;20428;-64
2023/09/24 10:52:53;;;;;;;5.33;2.10;;;;;;;18.90;61.76;101258.97;5008339;28;20498;-64
2023/09/24 10:55:28;;;;;;;5.00;1.47;;;;;;;18.88;61.18;101257.69;5008081;28;20436;-64
2023/09/24 10:57:54;;;;;;;4.60;1.60;;;;;;;18.93;61.79;101264.00;5009104;28;20494;-64
2023/09/24 11:00:23;;;;;;;7.03;2.50;;;;;;;18.90;60.62;101258.13;5009916;28;20432;-64
2023/09/24 11:02:56;;;;;;;5.30;1.90;;;;;;;18.97;60.84;101255.53;4981970;28;20557;-64
2023/09/24 11:05:22;;;;;;;5.13;1.67;;;;;;;18.97;59.04;101250.59;5007419;28;20427;-64
2023/09/24 11:07:47;;;;;;;2.77;1.50;;;;;;;18.90;60.44;101244.69;5007608;28;20450;-64
2023/09/24 11:10:19;;;;;;;4.00;1.67;;;;;;;18.94;59.98;101247.66;4983125;28;20228;-64
2023/09/24 11:12:49;;;;;;;3.57;1.80;;;;;;;18.97;60.02;101238.34;5008177;28;20192;-65
2023/09/24 11:15:14;;;;;;;3.03;1.27;;;;;;;19.04;58.64;101233.69;4984820;28;20946;-65
2023/09/24 11:17:40;;;;;;;5.47;1.60;;;;;;;19.06;59.58;101231.28;4976055;28;20432;-65
2023/09/24 11:20:08;;;;;;;3.27;1.37;;;;;;;19.07;59.26;101229.25;4990863;28;20641;-64
2023/09/24 11:22:34;;;;;;;3.20;1.43;;;;;;;19.10;58.28;101222.78;4985247;28;20934;-64
2023/09/24 11:25:06;;;;;;;3.70;1.60;;;;;;;19.08;58.37;101225.19;4990580;28;20442;-64